sensor_id;sensor_type;location;lat;lon;timestamp;P1;durP1;ratioP1;P2;durP2;ratioP2
55655;SDS011;41530;52.382;5.270;2023-04-15T00:01:08;2.17;;;1.17;;
55655;SDS011;41530;52.382;5.270;2023-04-15T00:03:35;2.13;;;1.33;;
55655;SDS011;41530;52.382;5.270;2023-04-15T00:06:02;5.13;;;1.20;;
55655;SDS011;41530;52.382;5.270;2023-04-15T00:08:29;2.17;;;1.27;;
55655;SDS011;41530;52.382;5.270;2023-04-15T00:10:56;3.00;;;1.05;;
55655;SDS011;41530;52.382;5.270;2023-04-15T00:13:28;1.42;;;1.10;;
55655;SDS011;41530;52.382;5.270;2023-04-15T00:15:54;2.67;;;1.10;;
55655;SDS011;41530;52.382;5.270;2023-04-15T00:18:21;1.77;;;0.93;;
55655;SDS011;41530;52.382;5.270;2023-04-15T00:20:48;3.00;;;1.10;;
55655;SDS011;41530;52.382;5.270;2023-04-15T00:23:15;2.63;;;1.10;;
55655;SDS011;41530;52.382;5.270;2023-04-15T00:25:41;2.42;;;1.23;;
55655;SDS011;41530;52.382;5.270;2023-04-15T00:28:08;2.03;;;1.08;;
55655;SDS011;41530;52.382;5.270;2023-04-15T00:30:35;2.17;;;1.30;;
55655;SDS011;41530;52.382;5.270;2023-04-15T00:33:01;2.80;;;1.20;;
55655;SDS011;41530;52.382;5.270;2023-04-15T00:35:29;2.63;;;1.15;;
55655;SDS011;41530;52.382;5.270;2023-04-15T00:37:57;2.40;;;1.10;;
55655;SDS011;41530;52.382;5.270;2023-04-15T00:40:25;1.88;;;1.10;;
55655;SDS011;41530;52.382;5.270;2023-04-15T00:42:51;2.65;;;1.40;;
55655;SDS011;41530;52.382;5.270;2023-04-15T00:45:18;1.65;;;1.20;;
55655;SDS011;41530;52.382;5.270;2023-04-15T00:47:45;2.60;;;1.10;;
55655;SDS011;41530;52.382;5.270;2023-04-15T00:50:12;2.42;;;1.20;;
55655;SDS011;41530;52.382;5.270;2023-04-15T00:52:39;4.70;;;1.23;;
55655;SDS011;41530;52.382;5.270;2023-04-15T00:55:07;3.47;;;1.20;;
55655;SDS011;41530;52.382;5.270;2023-04-15T00:57:34;4.28;;;1.42;;
55655;SDS011;41530;52.382;5.270;2023-04-15T01:00:02;2.38;;;1.23;;
55655;SDS011;41530;52.382;5.270;2023-04-15T01:02:30;4.22;;;1.17;;
55655;SDS011;41530;52.382;5.270;2023-04-15T01:04:58;3.17;;;1.40;;
55655;SDS011;41530;52.382;5.270;2023-04-15T01:07:25;1.88;;;1.30;;
55655;SDS011;41530;52.382;5.270;2023-04-15T01:09:52;1.52;;;1.15;;
55655;SDS011;41530;52.382;5.270;2023-04-15T01:12:19;5.15;;;1.20;;
55655;SDS011;41530;52.382;5.270;2023-04-15T01:14:45;2.10;;;1.10;;
55655;SDS011;41530;52.382;5.270;2023-04-15T01:17:12;2.88;;;1.23;;
55655;SDS011;41530;52.382;5.270;2023-04-15T01:19:39;5.13;;;1.38;;
55655;SDS011;41530;52.382;5.270;2023-04-15T01:22:06;3.45;;;1.10;;
55655;SDS011;41530;52.382;5.270;2023-04-15T01:24:33;1.98;;;1.17;;
55655;SDS011;41530;52.382;5.270;2023-04-15T01:27:02;1.92;;;1.15;;
55655;SDS011;41530;52.382;5.270;2023-04-15T01:29:34;1.48;;;0.98;;
55655;SDS011;41530;52.382;5.270;2023-04-15T01:32:03;2.90;;;1.10;;
55655;SDS011;41530;52.382;5.270;2023-04-15T01:34:30;3.53;;;1.40;;
55655;SDS011;41530;52.382;5.270;2023-04-15T01:37:00;3.20;;;1.15;;
55655;SDS011;41530;52.382;5.270;2023-04-15T01:39:27;3.40;;;1.30;;
55655;SDS011;41530;52.382;5.270;2023-04-15T01:41:53;5.43;;;1.63;;
55655;SDS011;41530;52.382;5.270;2023-04-15T01:44:20;2.15;;;1.20;;
55655;SDS011;41530;52.382;5.270;2023-04-15T01:46:47;4.18;;;1.67;;
55655;SDS011;41530;52.382;5.270;2023-04-15T01:49:13;1.38;;;1.00;;
55655;SDS011;41530;52.382;5.270;2023-04-15T01:51:40;2.20;;;1.20;;
55655;SDS011;41530;52.382;5.270;2023-04-15T01:54:06;2.63;;;1.02;;
55655;SDS011;41530;52.382;5.270;2023-04-15T01:56:33;1.98;;;1.20;;
55655;SDS011;41530;52.382;5.270;2023-04-15T01:59:01;1.48;;;1.10;;
55655;SDS011;41530;52.382;5.270;2023-04-15T02:01:28;1.88;;;1.02;;
55655;SDS011;41530;52.382;5.270;2023-04-15T02:03:55;2.95;;;1.23;;
55655;SDS011;41530;52.382;5.270;2023-04-15T02:06:22;2.13;;;1.33;;
55655;SDS011;41530;52.382;5.270;2023-04-15T02:08:49;2.67;;;1.30;;
55655;SDS011;41530;52.382;5.270;2023-04-15T02:11:16;2.03;;;1.10;;
55655;SDS011;41530;52.382;5.270;2023-04-15T02:13:43;4.75;;;1.25;;
55655;SDS011;41530;52.382;5.270;2023-04-15T02:16:16;5.20;;;1.17;;
55655;SDS011;41530;52.382;5.270;2023-04-15T02:18:44;2.30;;;0.75;;
55655;SDS011;41530;52.382;5.270;2023-04-15T02:21:12;3.42;;;1.15;;
55655;SDS011;41530;52.382;5.270;2023-04-15T02:23:39;1.63;;;1.08;;
55655;SDS011;41530;52.382;5.270;2023-04-15T02:26:06;1.60;;;1.00;;
55655;SDS011;41530;52.382;5.270;2023-04-15T02:28:33;3.08;;;1.20;;
55655;SDS011;41530;52.382;5.270;2023-04-15T02:31:00;2.35;;;1.38;;
55655;SDS011;41530;52.382;5.270;2023-04-15T02:33:31;1.85;;;1.05;;
55655;SDS011;41530;52.382;5.270;2023-04-15T02:35:58;2.65;;;0.98;;
55655;SDS011;41530;52.382;5.270;2023-04-15T02:38:25;3.45;;;1.13;;
55655;SDS011;41530;52.382;5.270;2023-04-15T02:40:51;2.60;;;1.15;;
55655;SDS011;41530;52.382;5.270;2023-04-15T02:43:18;2.45;;;0.98;;
55655;SDS011;41530;52.382;5.270;2023-04-15T02:45:45;2.63;;;1.23;;
55655;SDS011;41530;52.382;5.270;2023-04-15T02:48:12;2.60;;;1.30;;
55655;SDS011;41530;52.382;5.270;2023-04-15T02:50:39;2.75;;;1.30;;
55655;SDS011;41530;52.382;5.270;2023-04-15T02:53:06;3.97;;;1.23;;
55655;SDS011;41530;52.382;5.270;2023-04-15T02:55:32;3.08;;;1.17;;
55655;SDS011;41530;52.382;5.270;2023-04-15T02:57:59;3.08;;;1.00;;
55655;SDS011;41530;52.382;5.270;2023-04-15T03:00:26;1.58;;;0.95;;
55655;SDS011;41530;52.382;5.270;2023-04-15T03:02:57;1.60;;;1.02;;
55655;SDS011;41530;52.382;5.270;2023-04-15T03:05:28;2.35;;;0.90;;
55655;SDS011;41530;52.382;5.270;2023-04-15T03:07:55;2.58;;;1.00;;
55655;SDS011;41530;52.382;5.270;2023-04-15T03:10:22;3.33;;;1.27;;
55655;SDS011;41530;52.382;5.270;2023-04-15T03:12:49;3.17;;;1.08;;
55655;SDS011;41530;52.382;5.270;2023-04-15T03:15:15;3.05;;;1.08;;
55655;SDS011;41530;52.382;5.270;2023-04-15T03:17:42;2.42;;;1.10;;
55655;SDS011;41530;52.382;5.270;2023-04-15T03:20:09;1.55;;;0.98;;
55655;SDS011;41530;52.382;5.270;2023-04-15T03:22:36;1.75;;;0.95;;
55655;SDS011;41530;52.382;5.270;2023-04-15T03:25:03;2.53;;;1.00;;
55655;SDS011;41530;52.382;5.270;2023-04-15T03:27:30;2.03;;;1.08;;
55655;SDS011;41530;52.382;5.270;2023-04-15T03:29:57;2.17;;;1.17;;
55655;SDS011;41530;52.382;5.270;2023-04-15T03:32:23;2.28;;;1.02;;
55655;SDS011;41530;52.382;5.270;2023-04-15T03:34:50;2.20;;;1.00;;
55655;SDS011;41530;52.382;5.270;2023-04-15T03:37:16;3.47;;;1.20;;
55655;SDS011;41530;52.382;5.270;2023-04-15T03:39:43;1.20;;;0.85;;
55655;SDS011;41530;52.382;5.270;2023-04-15T03:42:09;1.60;;;0.90;;
55655;SDS011;41530;52.382;5.270;2023-04-15T03:44:36;4.97;;;1.02;;
55655;SDS011;41530;52.382;5.270;2023-04-15T03:47:03;1.90;;;0.88;;
55655;SDS011;41530;52.382;5.270;2023-04-15T03:49:30;2.10;;;0.93;;
55655;SDS011;41530;52.382;5.270;2023-04-15T03:51:56;1.83;;;1.05;;
55655;SDS011;41530;52.382;5.270;2023-04-15T03:54:23;2.25;;;1.10;;
55655;SDS011;41530;52.382;5.270;2023-04-15T03:56:50;1.55;;;1.10;;
55655;SDS011;41530;52.382;5.270;2023-04-15T03:59:16;1.65;;;1.10;;
55655;SDS011;41530;52.382;5.270;2023-04-15T04:01:43;3.22;;;1.10;;
55655;SDS011;41530;52.382;5.270;2023-04-15T04:04:09;1.92;;;0.90;;
55655;SDS011;41530;52.382;5.270;2023-04-15T04:06:36;2.50;;;1.10;;
55655;SDS011;41530;52.382;5.270;2023-04-15T04:09:03;2.40;;;1.00;;
55655;SDS011;41530;52.382;5.270;2023-04-15T04:11:30;1.63;;;1.20;;
55655;SDS011;41530;52.382;5.270;2023-04-15T04:13:56;1.55;;;1.17;;
55655;SDS011;41530;52.382;5.270;2023-04-15T04:16:23;3.50;;;1.00;;
55655;SDS011;41530;52.382;5.270;2023-04-15T04:18:50;1.95;;;1.00;;
55655;SDS011;41530;52.382;5.270;2023-04-15T04:21:17;3.72;;;1.20;;
55655;SDS011;41530;52.382;5.270;2023-04-15T04:23:44;1.92;;;1.00;;
55655;SDS011;41530;52.382;5.270;2023-04-15T04:26:10;2.35;;;1.15;;
55655;SDS011;41530;52.382;5.270;2023-04-15T04:28:37;2.17;;;1.05;;
55655;SDS011;41530;52.382;5.270;2023-04-15T04:31:06;1.83;;;1.05;;
55655;SDS011;41530;52.382;5.270;2023-04-15T04:33:33;2.80;;;0.90;;
55655;SDS011;41530;52.382;5.270;2023-04-15T04:35:59;1.85;;;1.25;;
55655;SDS011;41530;52.382;5.270;2023-04-15T04:38:26;1.83;;;1.00;;
55655;SDS011;41530;52.382;5.270;2023-04-15T04:40:53;1.63;;;1.17;;
55655;SDS011;41530;52.382;5.270;2023-04-15T04:43:19;2.17;;;1.40;;
55655;SDS011;41530;52.382;5.270;2023-04-15T04:45:46;2.33;;;1.15;;
55655;SDS011;41530;52.382;5.270;2023-04-15T04:48:13;4.45;;;1.02;;
55655;SDS011;41530;52.382;5.270;2023-04-15T04:50:39;1.75;;;1.10;;
55655;SDS011;41530;52.382;5.270;2023-04-15T04:53:06;3.17;;;0.95;;
55655;SDS011;41530;52.382;5.270;2023-04-15T04:55:33;1.55;;;0.90;;
55655;SDS011;41530;52.382;5.270;2023-04-15T04:58:02;2.72;;;1.20;;
55655;SDS011;41530;52.382;5.270;2023-04-15T05:00:28;2.13;;;1.05;;
55655;SDS011;41530;52.382;5.270;2023-04-15T05:02:55;3.30;;;1.20;;
55655;SDS011;41530;52.382;5.270;2023-04-15T05:05:22;1.75;;;1.10;;
55655;SDS011;41530;52.382;5.270;2023-04-15T05:07:48;1.58;;;1.15;;
55655;SDS011;41530;52.382;5.270;2023-04-15T05:10:15;1.42;;;0.95;;
55655;SDS011;41530;52.382;5.270;2023-04-15T05:12:43;2.83;;;1.10;;
55655;SDS011;41530;52.382;5.270;2023-04-15T05:15:10;3.55;;;1.40;;
55655;SDS011;41530;52.382;5.270;2023-04-15T05:17:37;2.50;;;1.20;;
55655;SDS011;41530;52.382;5.270;2023-04-15T05:20:04;2.83;;;1.20;;
55655;SDS011;41530;52.382;5.270;2023-04-15T05:22:31;1.38;;;1.17;;
55655;SDS011;41530;52.382;5.270;2023-04-15T05:24:57;2.92;;;1.20;;
55655;SDS011;41530;52.382;5.270;2023-04-15T05:27:24;2.13;;;1.20;;
55655;SDS011;41530;52.382;5.270;2023-04-15T05:29:51;1.70;;;1.20;;
55655;SDS011;41530;52.382;5.270;2023-04-15T05:32:17;1.23;;;1.10;;
55655;SDS011;41530;52.382;5.270;2023-04-15T05:34:44;2.08;;;1.02;;
55655;SDS011;41530;52.382;5.270;2023-04-15T05:37:11;1.45;;;1.05;;
55655;SDS011;41530;52.382;5.270;2023-04-15T05:39:38;1.58;;;1.20;;
55655;SDS011;41530;52.382;5.270;2023-04-15T05:42:04;2.83;;;1.20;;
55655;SDS011;41530;52.382;5.270;2023-04-15T05:44:31;2.85;;;1.30;;
55655;SDS011;41530;52.382;5.270;2023-04-15T05:46:58;1.50;;;1.08;;
55655;SDS011;41530;52.382;5.270;2023-04-15T05:49:24;2.90;;;1.40;;
55655;SDS011;41530;52.382;5.270;2023-04-15T05:51:51;3.08;;;1.48;;
55655;SDS011;41530;52.382;5.270;2023-04-15T05:54:18;1.10;;;1.00;;
55655;SDS011;41530;52.382;5.270;2023-04-15T05:56:45;2.28;;;1.20;;
55655;SDS011;41530;52.382;5.270;2023-04-15T05:59:12;1.63;;;0.90;;
55655;SDS011;41530;52.382;5.270;2023-04-15T06:01:38;1.80;;;1.10;;
55655;SDS011;41530;52.382;5.270;2023-04-15T06:04:05;2.63;;;1.25;;
55655;SDS011;41530;52.382;5.270;2023-04-15T06:06:32;2.00;;;1.30;;
55655;SDS011;41530;52.382;5.270;2023-04-15T06:08:59;1.55;;;1.15;;
55655;SDS011;41530;52.382;5.270;2023-04-15T06:11:26;2.53;;;1.17;;
55655;SDS011;41530;52.382;5.270;2023-04-15T06:13:53;3.30;;;1.30;;
55655;SDS011;41530;52.382;5.270;2023-04-15T06:16:20;2.67;;;1.60;;
55655;SDS011;41530;52.382;5.270;2023-04-15T06:18:47;1.73;;;1.30;;
55655;SDS011;41530;52.382;5.270;2023-04-15T06:21:14;1.52;;;1.20;;
55655;SDS011;41530;52.382;5.270;2023-04-15T06:23:41;1.95;;;1.20;;
55655;SDS011;41530;52.382;5.270;2023-04-15T06:26:07;2.03;;;0.93;;
55655;SDS011;41530;52.382;5.270;2023-04-15T06:28:34;1.73;;;1.00;;
55655;SDS011;41530;52.382;5.270;2023-04-15T06:31:01;2.22;;;1.13;;
55655;SDS011;41530;52.382;5.270;2023-04-15T06:33:27;2.97;;;1.05;;
55655;SDS011;41530;52.382;5.270;2023-04-15T06:35:54;1.45;;;0.98;;
55655;SDS011;41530;52.382;5.270;2023-04-15T06:38:21;2.70;;;1.10;;
55655;SDS011;41530;52.382;5.270;2023-04-15T06:40:47;3.63;;;0.88;;
55655;SDS011;41530;52.382;5.270;2023-04-15T06:43:14;1.20;;;0.80;;
55655;SDS011;41530;52.382;5.270;2023-04-15T06:45:40;1.35;;;1.00;;
55655;SDS011;41530;52.382;5.270;2023-04-15T06:48:07;1.48;;;0.80;;
55655;SDS011;41530;52.382;5.270;2023-04-15T06:50:34;6.20;;;1.00;;
55655;SDS011;41530;52.382;5.270;2023-04-15T06:53:00;1.70;;;0.90;;
55655;SDS011;41530;52.382;5.270;2023-04-15T06:55:28;0.90;;;0.70;;
55655;SDS011;41530;52.382;5.270;2023-04-15T06:57:54;1.35;;;0.95;;
55655;SDS011;41530;52.382;5.270;2023-04-15T07:00:21;0.88;;;0.55;;
55655;SDS011;41530;52.382;5.270;2023-04-15T07:02:48;0.70;;;0.70;;
55655;SDS011;41530;52.382;5.270;2023-04-15T07:05:15;0.88;;;0.70;;
55655;SDS011;41530;52.382;5.270;2023-04-15T07:07:42;1.00;;;0.73;;
55655;SDS011;41530;52.382;5.270;2023-04-15T07:10:08;1.52;;;0.75;;
55655;SDS011;41530;52.382;5.270;2023-04-15T07:12:37;2.95;;;0.88;;
55655;SDS011;41530;52.382;5.270;2023-04-15T07:15:04;1.38;;;0.77;;
55655;SDS011;41530;52.382;5.270;2023-04-15T07:17:31;1.30;;;0.65;;
55655;SDS011;41530;52.382;5.270;2023-04-15T07:19:58;0.82;;;0.82;;
55655;SDS011;41530;52.382;5.270;2023-04-15T07:22:25;1.77;;;0.70;;
55655;SDS011;41530;52.382;5.270;2023-04-15T07:24:51;1.80;;;0.75;;
55655;SDS011;41530;52.382;5.270;2023-04-15T07:27:18;2.28;;;1.35;;
55655;SDS011;41530;52.382;5.270;2023-04-15T07:29:45;3.60;;;1.30;;
55655;SDS011;41530;52.382;5.270;2023-04-15T07:32:11;3.40;;;1.50;;
55655;SDS011;41530;52.382;5.270;2023-04-15T07:34:38;3.42;;;1.30;;
55655;SDS011;41530;52.382;5.270;2023-04-15T07:37:05;1.35;;;1.25;;
55655;SDS011;41530;52.382;5.270;2023-04-15T07:39:31;2.88;;;1.27;;
55655;SDS011;41530;52.382;5.270;2023-04-15T07:41:58;1.60;;;1.25;;
55655;SDS011;41530;52.382;5.270;2023-04-15T07:44:25;2.83;;;1.45;;
55655;SDS011;41530;52.382;5.270;2023-04-15T07:46:52;1.80;;;1.15;;
55655;SDS011;41530;52.382;5.270;2023-04-15T07:49:19;2.63;;;1.40;;
55655;SDS011;41530;52.382;5.270;2023-04-15T07:51:46;1.65;;;1.08;;
55655;SDS011;41530;52.382;5.270;2023-04-15T07:54:14;5.85;;;1.05;;
55655;SDS011;41530;52.382;5.270;2023-04-15T07:56:41;1.23;;;0.98;;
55655;SDS011;41530;52.382;5.270;2023-04-15T07:59:08;2.20;;;1.60;;
55655;SDS011;41530;52.382;5.270;2023-04-15T08:01:35;2.10;;;1.20;;
55655;SDS011;41530;52.382;5.270;2023-04-15T08:04:02;2.00;;;1.20;;
55655;SDS011;41530;52.382;5.270;2023-04-15T08:06:29;3.22;;;1.20;;
55655;SDS011;41530;52.382;5.270;2023-04-15T08:08:56;2.97;;;1.20;;
55655;SDS011;41530;52.382;5.270;2023-04-15T08:11:23;1.85;;;1.25;;
55655;SDS011;41530;52.382;5.270;2023-04-15T08:13:50;2.45;;;1.20;;
55655;SDS011;41530;52.382;5.270;2023-04-15T08:16:21;1.95;;;1.10;;
55655;SDS011;41530;52.382;5.270;2023-04-15T08:18:51;2.60;;;1.60;;
55655;SDS011;41530;52.382;5.270;2023-04-15T08:21:18;3.15;;;1.60;;
55655;SDS011;41530;52.382;5.270;2023-04-15T08:23:46;2.10;;;1.90;;
55655;SDS011;41530;52.382;5.270;2023-04-15T08:26:15;4.70;;;1.70;;
55655;SDS011;41530;52.382;5.270;2023-04-15T08:28:43;3.20;;;2.30;;
55655;SDS011;41530;52.382;5.270;2023-04-15T08:31:11;3.88;;;2.10;;
55655;SDS011;41530;52.382;5.270;2023-04-15T08:33:40;5.75;;;2.38;;
55655;SDS011;41530;52.382;5.270;2023-04-15T08:36:06;5.88;;;2.40;;
55655;SDS011;41530;52.382;5.270;2023-04-15T08:38:33;4.93;;;2.30;;
55655;SDS011;41530;52.382;5.270;2023-04-15T08:41:02;4.13;;;2.08;;
55655;SDS011;41530;52.382;5.270;2023-04-15T08:43:48;3.80;;;1.90;;
55655;SDS011;41530;52.382;5.270;2023-04-15T08:46:23;5.15;;;2.05;;
55655;SDS011;41530;52.382;5.270;2023-04-15T08:48:50;3.38;;;1.67;;
55655;SDS011;41530;52.382;5.270;2023-04-15T08:51:17;3.95;;;1.70;;
55655;SDS011;41530;52.382;5.270;2023-04-15T08:53:44;3.08;;;1.92;;
55655;SDS011;41530;52.382;5.270;2023-04-15T08:56:13;3.17;;;1.70;;
55655;SDS011;41530;52.382;5.270;2023-04-15T08:58:42;3.50;;;1.70;;
55655;SDS011;41530;52.382;5.270;2023-04-15T09:01:13;3.08;;;1.70;;
55655;SDS011;41530;52.382;5.270;2023-04-15T09:03:40;1.65;;;1.25;;
55655;SDS011;41530;52.382;5.270;2023-04-15T09:06:07;1.88;;;1.42;;
55655;SDS011;41530;52.382;5.270;2023-04-15T09:08:34;1.63;;;1.33;;
55655;SDS011;41530;52.382;5.270;2023-04-15T09:11:01;1.77;;;1.20;;
55655;SDS011;41530;52.382;5.270;2023-04-15T09:13:28;1.27;;;1.17;;
55655;SDS011;41530;52.382;5.270;2023-04-15T09:15:55;1.95;;;1.08;;
55655;SDS011;41530;52.382;5.270;2023-04-15T09:18:30;3.22;;;1.02;;
55655;SDS011;41530;52.382;5.270;2023-04-15T09:21:11;1.87;;;1.00;;
55655;SDS011;41530;52.382;5.270;2023-04-15T09:23:40;2.78;;;0.90;;
55655;SDS011;41530;52.382;5.270;2023-04-15T09:26:19;1.42;;;0.88;;
55655;SDS011;41530;52.382;5.270;2023-04-15T09:29:01;2.30;;;1.13;;
55655;SDS011;41530;52.382;5.270;2023-04-15T09:31:40;1.85;;;1.08;;
55655;SDS011;41530;52.382;5.270;2023-04-15T09:34:08;2.25;;;1.15;;
55655;SDS011;41530;52.382;5.270;2023-04-15T09:36:40;2.50;;;1.30;;
55655;SDS011;41530;52.382;5.270;2023-04-15T09:39:18;2.55;;;1.20;;
55655;SDS011;41530;52.382;5.270;2023-04-15T09:41:45;2.92;;;1.52;;
55655;SDS011;41530;52.382;5.270;2023-04-15T09:44:24;2.13;;;1.10;;
55655;SDS011;41530;52.382;5.270;2023-04-15T09:46:52;2.45;;;1.05;;
55655;SDS011;41530;52.382;5.270;2023-04-15T09:49:18;2.45;;;1.15;;
55655;SDS011;41530;52.382;5.270;2023-04-15T09:51:46;1.60;;;1.10;;
55655;SDS011;41530;52.382;5.270;2023-04-15T09:54:32;2.75;;;0.93;;
55655;SDS011;41530;52.382;5.270;2023-04-15T09:57:04;2.20;;;1.40;;
55655;SDS011;41530;52.382;5.270;2023-04-15T09:59:31;2.38;;;1.08;;
55655;SDS011;41530;52.382;5.270;2023-04-15T10:01:58;1.80;;;1.15;;
55655;SDS011;41530;52.382;5.270;2023-04-15T10:04:26;1.52;;;1.08;;
55655;SDS011;41530;52.382;5.270;2023-04-15T10:06:53;1.80;;;1.27;;
55655;SDS011;41530;52.382;5.270;2023-04-15T10:09:21;1.65;;;1.17;;
55655;SDS011;41530;52.382;5.270;2023-04-15T10:11:48;2.30;;;1.35;;
55655;SDS011;41530;52.382;5.270;2023-04-15T10:14:15;2.35;;;1.17;;
55655;SDS011;41530;52.382;5.270;2023-04-15T10:16:43;2.72;;;1.40;;
55655;SDS011;41530;52.382;5.270;2023-04-15T10:19:14;2.55;;;1.73;;
55655;SDS011;41530;52.382;5.270;2023-04-15T10:21:44;3.53;;;1.60;;
55655;SDS011;41530;52.382;5.270;2023-04-15T10:24:11;2.40;;;1.70;;
55655;SDS011;41530;52.382;5.270;2023-04-15T10:26:38;3.65;;;2.20;;
55655;SDS011;41530;52.382;5.270;2023-04-15T10:29:06;3.55;;;1.80;;
55655;SDS011;41530;52.382;5.270;2023-04-15T10:31:34;3.35;;;1.83;;
55655;SDS011;41530;52.382;5.270;2023-04-15T10:34:04;2.33;;;1.60;;
55655;SDS011;41530;52.382;5.270;2023-04-15T10:36:32;3.45;;;1.83;;
55655;SDS011;41530;52.382;5.270;2023-04-15T10:38:59;2.08;;;1.42;;
55655;SDS011;41530;52.382;5.270;2023-04-15T10:41:26;3.15;;;1.45;;
55655;SDS011;41530;52.382;5.270;2023-04-15T10:44:00;3.10;;;1.73;;
55655;SDS011;41530;52.382;5.270;2023-04-15T10:49:13;3.17;;;1.07;;
55655;SDS011;41530;52.382;5.270;2023-04-15T10:51:53;2.53;;;1.15;;
55655;SDS011;41530;52.382;5.270;2023-04-15T10:56:50;0.98;;;0.70;;
55655;SDS011;41530;52.382;5.270;2023-04-15T10:59:38;1.55;;;0.95;;
55655;SDS011;41530;52.382;5.270;2023-04-15T11:02:39;0.93;;;0.77;;
55655;SDS011;41530;52.382;5.270;2023-04-15T11:05:07;1.98;;;0.95;;
55655;SDS011;41530;52.382;5.270;2023-04-15T11:12:39;1.02;;;0.75;;
55655;SDS011;41530;52.382;5.270;2023-04-15T11:17:52;2.55;;;1.10;;
55655;SDS011;41530;52.382;5.270;2023-04-15T11:20:19;4.10;;;1.30;;
55655;SDS011;41530;52.382;5.270;2023-04-15T11:22:52;2.58;;;1.17;;
55655;SDS011;41530;52.382;5.270;2023-04-15T11:25:40;2.17;;;0.98;;
55655;SDS011;41530;52.382;5.270;2023-04-15T11:28:07;3.50;;;1.08;;
55655;SDS011;41530;52.382;5.270;2023-04-15T11:30:34;1.25;;;1.00;;
55655;SDS011;41530;52.382;5.270;2023-04-15T11:33:03;1.60;;;1.00;;
55655;SDS011;41530;52.382;5.270;2023-04-15T11:35:31;1.75;;;1.00;;
55655;SDS011;41530;52.382;5.270;2023-04-15T11:38:01;2.80;;;1.00;;
55655;SDS011;41530;52.382;5.270;2023-04-15T11:40:33;1.48;;;0.77;;
55655;SDS011;41530;52.382;5.270;2023-04-15T11:45:47;1.55;;;0.93;;
55655;SDS011;41530;52.382;5.270;2023-04-15T11:48:22;1.42;;;0.80;;
55655;SDS011;41530;52.382;5.270;2023-04-15T11:53:21;3.92;;;0.95;;
55655;SDS011;41530;52.382;5.270;2023-04-15T11:55:50;1.60;;;1.05;;
55655;SDS011;41530;52.382;5.270;2023-04-15T11:58:19;1.55;;;1.00;;
55655;SDS011;41530;52.382;5.270;2023-04-15T12:00:54;1.48;;;0.80;;
55655;SDS011;41530;52.382;5.270;2023-04-15T12:03:23;1.73;;;1.00;;
55655;SDS011;41530;52.382;5.270;2023-04-15T12:06:17;2.72;;;1.75;;
55655;SDS011;41530;52.382;5.270;2023-04-15T12:14:08;1.30;;;0.90;;
55655;SDS011;41530;52.382;5.270;2023-04-15T12:16:36;2.47;;;1.10;;
55655;SDS011;41530;52.382;5.270;2023-04-15T12:19:22;0.95;;;0.90;;
55655;SDS011;41530;52.382;5.270;2023-04-15T12:21:52;2.08;;;1.17;;
55655;SDS011;41530;52.382;5.270;2023-04-15T12:24:25;1.00;;;0.73;;
55655;SDS011;41530;52.382;5.270;2023-04-15T12:26:53;1.60;;;0.70;;
55655;SDS011;41530;52.382;5.270;2023-04-15T12:29:26;4.82;;;0.90;;
55655;SDS011;41530;52.382;5.270;2023-04-15T12:32:02;1.70;;;0.73;;
55655;SDS011;41530;52.382;5.270;2023-04-15T12:34:33;0.80;;;0.80;;
55655;SDS011;41530;52.382;5.270;2023-04-15T12:37:01;2.95;;;0.90;;
55655;SDS011;41530;52.382;5.270;2023-04-15T12:39:30;1.92;;;1.10;;
55655;SDS011;41530;52.382;5.270;2023-04-15T12:42:00;2.05;;;0.95;;
55655;SDS011;41530;52.382;5.270;2023-04-15T12:44:27;2.55;;;0.90;;
55655;SDS011;41530;52.382;5.270;2023-04-15T12:46:54;5.78;;;0.93;;
55655;SDS011;41530;52.382;5.270;2023-04-15T12:49:21;3.33;;;0.90;;
55655;SDS011;41530;52.382;5.270;2023-04-15T12:51:50;3.67;;;0.80;;
55655;SDS011;41530;52.382;5.270;2023-04-15T12:54:19;2.33;;;1.00;;
55655;SDS011;41530;52.382;5.270;2023-04-15T12:56:47;4.13;;;0.63;;
55655;SDS011;41530;52.382;5.270;2023-04-15T12:59:15;3.65;;;0.90;;
55655;SDS011;41530;52.382;5.270;2023-04-15T13:01:44;2.38;;;0.80;;
55655;SDS011;41530;52.382;5.270;2023-04-15T13:04:11;1.80;;;0.90;;
55655;SDS011;41530;52.382;5.270;2023-04-15T13:06:38;2.13;;;0.82;;
55655;SDS011;41530;52.382;5.270;2023-04-15T13:09:05;2.30;;;0.70;;
55655;SDS011;41530;52.382;5.270;2023-04-15T13:11:32;2.35;;;0.80;;
55655;SDS011;41530;52.382;5.270;2023-04-15T13:13:59;2.33;;;0.70;;
55655;SDS011;41530;52.382;5.270;2023-04-15T13:16:27;1.77;;;0.70;;
55655;SDS011;41530;52.382;5.270;2023-04-15T13:18:54;2.85;;;0.65;;
55655;SDS011;41530;52.382;5.270;2023-04-15T13:21:21;1.63;;;0.70;;
55655;SDS011;41530;52.382;5.270;2023-04-15T13:23:48;1.65;;;0.70;;
55655;SDS011;41530;52.382;5.270;2023-04-15T13:26:18;2.60;;;0.70;;
55655;SDS011;41530;52.382;5.270;2023-04-15T13:28:45;1.48;;;0.77;;
55655;SDS011;41530;52.382;5.270;2023-04-15T13:31:11;2.40;;;0.75;;
55655;SDS011;41530;52.382;5.270;2023-04-15T13:33:38;2.33;;;0.88;;
55655;SDS011;41530;52.382;5.270;2023-04-15T13:36:05;3.50;;;0.70;;
55655;SDS011;41530;52.382;5.270;2023-04-15T13:38:32;1.40;;;0.60;;
55655;SDS011;41530;52.382;5.270;2023-04-15T13:40:58;2.47;;;0.80;;
55655;SDS011;41530;52.382;5.270;2023-04-15T13:43:25;1.95;;;0.68;;
55655;SDS011;41530;52.382;5.270;2023-04-15T13:45:52;1.75;;;0.70;;
55655;SDS011;41530;52.382;5.270;2023-04-15T13:48:18;1.55;;;0.65;;
55655;SDS011;41530;52.382;5.270;2023-04-15T13:50:45;2.40;;;0.70;;
55655;SDS011;41530;52.382;5.270;2023-04-15T13:53:12;1.45;;;0.70;;
55655;SDS011;41530;52.382;5.270;2023-04-15T13:55:38;1.05;;;0.63;;
55655;SDS011;41530;52.382;5.270;2023-04-15T13:58:07;1.15;;;0.60;;
55655;SDS011;41530;52.382;5.270;2023-04-15T14:00:34;0.80;;;0.50;;
55655;SDS011;41530;52.382;5.270;2023-04-15T14:03:01;1.13;;;0.60;;
55655;SDS011;41530;52.382;5.270;2023-04-15T14:05:27;3.63;;;0.60;;
55655;SDS011;41530;52.382;5.270;2023-04-15T14:07:54;1.45;;;0.60;;
55655;SDS011;41530;52.382;5.270;2023-04-15T14:10:21;1.42;;;0.50;;
55655;SDS011;41530;52.382;5.270;2023-04-15T14:12:47;0.98;;;0.43;;
55655;SDS011;41530;52.382;5.270;2023-04-15T14:15:14;1.08;;;0.68;;
55655;SDS011;41530;52.382;5.270;2023-04-15T14:17:41;2.20;;;0.52;;
55655;SDS011;41530;52.382;5.270;2023-04-15T14:20:08;2.28;;;0.45;;
55655;SDS011;41530;52.382;5.270;2023-04-15T14:22:35;1.13;;;0.57;;
55655;SDS011;41530;52.382;5.270;2023-04-15T14:25:02;1.33;;;0.50;;
55655;SDS011;41530;52.382;5.270;2023-04-15T14:27:29;0.80;;;0.60;;
55655;SDS011;41530;52.382;5.270;2023-04-15T14:29:55;1.27;;;0.60;;
55655;SDS011;41530;52.382;5.270;2023-04-15T14:32:24;2.30;;;0.40;;
55655;SDS011;41530;52.382;5.270;2023-04-15T14:34:51;0.85;;;0.38;;
55655;SDS011;41530;52.382;5.270;2023-04-15T14:37:18;0.70;;;0.60;;
55655;SDS011;41530;52.382;5.270;2023-04-15T14:39:44;1.23;;;0.50;;
55655;SDS011;41530;52.382;5.270;2023-04-15T14:42:11;0.55;;;0.52;;
55655;SDS011;41530;52.382;5.270;2023-04-15T14:44:37;1.05;;;0.45;;
55655;SDS011;41530;52.382;5.270;2023-04-15T14:47:04;0.73;;;0.47;;
55655;SDS011;41530;52.382;5.270;2023-04-15T14:49:31;2.45;;;0.40;;
55655;SDS011;41530;52.382;5.270;2023-04-15T14:51:57;2.15;;;0.68;;
55655;SDS011;41530;52.382;5.270;2023-04-15T14:54:24;1.40;;;0.60;;
55655;SDS011;41530;52.382;5.270;2023-04-15T14:56:50;1.33;;;0.50;;
55655;SDS011;41530;52.382;5.270;2023-04-15T14:59:17;0.70;;;0.60;;
55655;SDS011;41530;52.382;5.270;2023-04-15T15:01:44;0.95;;;0.40;;
55655;SDS011;41530;52.382;5.270;2023-04-15T15:04:10;1.60;;;0.40;;
55655;SDS011;41530;52.382;5.270;2023-04-15T15:06:38;2.65;;;0.40;;
55655;SDS011;41530;52.382;5.270;2023-04-15T15:09:05;0.57;;;0.40;;
55655;SDS011;41530;52.382;5.270;2023-04-15T15:11:32;0.55;;;0.40;;
55655;SDS011;41530;52.382;5.270;2023-04-15T15:13:59;0.57;;;0.50;;
55655;SDS011;41530;52.382;5.270;2023-04-15T15:16:26;0.50;;;0.50;;